createdAt,value
2018-06-27T00:00:15.165Z,0.00
2018-06-27T00:01:15.503Z,0.00
2018-06-27T00:02:15.236Z,0.00
2018-06-27T00:03:15.275Z,0.00
2018-06-27T00:04:15.299Z,0.00
2018-06-27T00:05:15.331Z,0.00
2018-06-27T00:06:15.373Z,0.00
2018-06-27T00:07:15.407Z,0.00
2018-06-27T00:08:15.683Z,0.00
2018-06-27T00:09:15.490Z,0.00
2018-06-27T00:10:15.511Z,0.00
2018-06-27T00:11:15.534Z,0.00
2018-06-27T00:12:15.565Z,0.00
2018-06-27T00:13:15.602Z,0.00
2018-06-27T00:14:15.629Z,0.00
2018-06-27T00:15:15.915Z,0.00
2018-06-27T00:16:15.712Z,0.00
2018-06-27T00:17:15.732Z,0.00
2018-06-27T00:18:15.780Z,0.00
2018-06-27T00:19:15.814Z,0.00
2018-06-27T00:20:15.833Z,0.00
2018-06-27T00:21:16.084Z,0.00
2018-06-27T00:22:16.148Z,0.00
2018-06-27T00:23:15.931Z,0.00
2018-06-27T00:24:15.976Z,0.00
2018-06-27T00:25:16.004Z,0.00
2018-06-27T00:26:16.081Z,0.00
2018-06-27T00:27:16.080Z,0.00
2018-06-27T00:28:16.105Z,0.00
2018-06-27T00:29:16.383Z,0.00
2018-06-27T00:30:16.188Z,0.00
2018-06-27T00:31:16.200Z,0.00
2018-06-27T00:32:16.239Z,0.00
2018-06-27T00:33:16.263Z,0.00
2018-06-27T00:34:16.297Z,0.00
2018-06-27T00:35:16.328Z,0.00
2018-06-27T00:36:16.610Z,0.00
2018-06-27T00:37:16.395Z,0.00
2018-06-27T00:38:16.425Z,0.00
2018-06-27T00:39:16.462Z,0.00
2018-06-27T00:40:16.515Z,0.00
2018-06-27T00:41:16.620Z,0.00
2018-06-27T00:42:16.564Z,0.00
2018-06-27T00:43:16.899Z,0.00
2018-06-27T00:44:16.678Z,0.00
2018-06-27T00:45:16.655Z,0.00
2018-06-27T00:46:16.742Z,0.00
2018-06-27T00:47:16.720Z,0.00
2018-06-27T00:48:16.785Z,0.00
2018-06-27T00:49:16.825Z,0.00
2018-06-27T00:50:17.141Z,0.00
2018-06-27T00:51:16.910Z,0.00
2018-06-27T00:52:16.938Z,0.00
2018-06-27T00:53:16.921Z,0.00
2018-06-27T00:54:16.953Z,0.00
2018-06-27T00:55:17.066Z,0.00
2018-06-27T00:56:17.276Z,0.00
2018-06-27T00:57:17.050Z,0.00
2018-06-27T00:58:17.085Z,0.00
2018-06-27T00:59:17.127Z,0.00
2018-06-27T01:00:17.145Z,0.00
2018-06-27T01:01:17.182Z,0.00
2018-06-27T01:02:17.527Z,0.00
2018-06-27T01:03:17.303Z,0.00
2018-06-27T01:04:17.325Z,0.00
2018-06-27T01:05:17.309Z,0.00
2018-06-27T01:06:17.346Z,0.00
2018-06-27T01:07:17.386Z,0.00
2018-06-27T01:08:17.715Z,0.00
2018-06-27T01:09:17.457Z,0.00
2018-06-27T01:10:17.475Z,0.00
2018-06-27T01:11:17.511Z,0.00
2018-06-27T01:12:17.615Z,0.00
2018-06-27T01:13:17.571Z,0.00
2018-06-27T01:14:17.860Z,0.00
2018-06-27T01:15:17.647Z,0.00
2018-06-27T01:16:17.671Z,0.00
2018-06-27T01:17:17.702Z,0.00
2018-06-27T01:18:17.744Z,0.00
2018-06-27T01:19:17.773Z,0.00
2018-06-27T01:20:18.054Z,0.00
2018-06-27T01:21:17.885Z,0.00
2018-06-27T01:22:17.886Z,0.00
2018-06-27T01:23:17.914Z,0.00
2018-06-27T01:24:17.933Z,0.00
2018-06-27T01:25:17.969Z,0.00
2018-06-27T01:26:18.247Z,0.00
2018-06-27T01:27:18.077Z,0.00
2018-06-27T01:28:18.061Z,0.00
2018-06-27T01:29:18.103Z,0.00
2018-06-27T01:30:18.126Z,0.00
2018-06-27T01:31:18.168Z,0.00
2018-06-27T01:32:18.505Z,0.00
2018-06-27T01:33:18.233Z,0.00
2018-06-27T01:34:18.261Z,0.00
2018-06-27T01:35:18.292Z,0.00
2018-06-27T01:36:18.323Z,0.00
2018-06-27T01:37:18.390Z,0.00
2018-06-27T01:38:18.689Z,0.00
2018-06-27T01:39:18.424Z,0.00
2018-06-27T01:40:18.458Z,0.00
2018-06-27T01:41:18.490Z,0.00
2018-06-27T01:42:18.515Z,0.00
2018-06-27T01:43:18.570Z,0.00
2018-06-27T01:44:18.834Z,0.00
2018-06-27T01:45:18.619Z,0.00
2018-06-27T01:46:18.649Z,0.00
2018-06-27T01:47:18.754Z,0.00
2018-06-27T01:48:18.727Z,0.00
2018-06-27T01:49:18.745Z,0.00
2018-06-27T01:50:19.077Z,0.00
2018-06-27T01:51:18.830Z,0.00
2018-06-27T01:52:18.841Z,0.00
2018-06-27T01:53:18.877Z,0.00
2018-06-27T01:54:18.906Z,0.00
2018-06-27T01:55:18.942Z,0.00
2018-06-27T01:56:19.274Z,0.00
2018-06-27T01:57:19.029Z,0.00
2018-06-27T01:58:19.050Z,0.00
2018-06-27T01:59:19.079Z,0.00
2018-06-27T02:00:19.110Z,0.00
2018-06-27T02:01:19.140Z,0.00
2018-06-27T02:02:19.470Z,0.00
2018-06-27T02:03:19.269Z,0.00
2018-06-27T02:04:19.238Z,0.00
2018-06-27T02:05:19.276Z,0.00
2018-06-27T02:06:19.307Z,0.00
2018-06-27T02:07:19.397Z,0.00
2018-06-27T02:08:19.661Z,0.00
2018-06-27T02:09:19.392Z,0.00
2018-06-27T02:10:19.435Z,0.00
2018-06-27T02:11:19.461Z,0.00
2018-06-27T02:12:19.494Z,0.00
2018-06-27T02:13:19.532Z,0.00
2018-06-27T02:14:19.556Z,0.00
2018-06-27T02:15:19.894Z,0.00
2018-06-27T02:16:19.628Z,0.00
2018-06-27T02:17:19.671Z,0.00
2018-06-27T02:18:19.734Z,0.00
2018-06-27T02:19:19.721Z,0.00
2018-06-27T02:20:19.751Z,0.00
2018-06-27T02:21:19.784Z,0.00
2018-06-27T02:22:20.097Z,0.00
2018-06-27T02:23:19.851Z,0.00
2018-06-27T02:24:19.887Z,0.00
2018-06-27T02:25:19.918Z,0.00
2018-06-27T02:26:19.962Z,0.00
2018-06-27T02:27:20.076Z,0.00
2018-06-27T02:28:20.032Z,0.00
2018-06-27T02:29:20.305Z,0.00
2018-06-27T02:30:20.087Z,0.00
2018-06-27T02:31:20.112Z,0.00
2018-06-27T02:32:20.151Z,0.00
2018-06-27T02:33:20.175Z,0.00
2018-06-27T02:34:20.217Z,0.00
2018-06-27T02:35:20.241Z,0.00
2018-06-27T02:36:20.572Z,0.00
2018-06-27T02:37:20.309Z,0.00
2018-06-27T02:38:20.361Z,0.00
2018-06-27T02:39:20.381Z,0.00
2018-06-27T02:40:20.402Z,0.00
2018-06-27T02:41:20.589Z,0.00
2018-06-27T02:42:20.468Z,0.00
2018-06-27T02:43:20.774Z,0.00
2018-06-27T02:44:20.530Z,0.00
2018-06-27T02:45:20.560Z,0.00
2018-06-27T02:46:20.594Z,0.00
2018-06-27T02:47:20.641Z,0.00
2018-06-27T02:48:20.657Z,0.00
2018-06-27T02:49:20.690Z,0.00
2018-06-27T02:50:20.981Z,0.00
2018-06-27T02:51:20.755Z,0.00
2018-06-27T02:52:20.786Z,0.00
2018-06-27T02:53:20.917Z,0.00
2018-06-27T02:54:20.858Z,0.00
2018-06-27T02:55:20.886Z,0.00
2018-06-27T02:56:20.913Z,0.00
2018-06-27T02:57:21.257Z,0.00
2018-06-27T02:58:20.985Z,0.00
2018-06-27T02:59:21.014Z,0.00
2018-06-27T03:00:21.044Z,0.00
2018-06-27T03:01:21.083Z,0.00
2018-06-27T03:02:21.131Z,0.00
2018-06-27T03:03:21.168Z,0.00
2018-06-27T03:04:21.476Z,0.00
2018-06-27T03:05:21.209Z,0.00
2018-06-27T03:06:21.243Z,0.00
2018-06-27T03:07:21.269Z,0.00
2018-06-27T03:08:21.327Z,0.00
2018-06-27T03:09:21.340Z,0.00
2018-06-27T03:10:21.368Z,0.00
2018-06-27T03:11:21.712Z,0.00
2018-06-27T03:12:21.574Z,0.00
2018-06-27T03:13:21.482Z,0.00
2018-06-27T03:14:21.513Z,0.00
2018-06-27T03:15:21.531Z,0.00
2018-06-27T03:16:21.566Z,0.00
2018-06-27T03:17:21.690Z,0.00
2018-06-27T03:18:21.889Z,0.00
2018-06-27T03:19:21.682Z,0.00
2018-06-27T03:20:21.730Z,0.00
2018-06-27T03:21:21.718Z,0.00
2018-06-27T03:22:21.761Z,0.00
2018-06-27T03:23:21.790Z,0.00
2018-06-27T03:24:21.826Z,0.00
2018-06-27T03:25:22.148Z,0.00
2018-06-27T03:26:21.881Z,5.63
2018-06-27T03:27:21.940Z,5.63
2018-06-27T03:28:21.963Z,5.63
2018-06-27T03:29:21.990Z,5.63
2018-06-27T03:30:22.027Z,5.63
2018-06-27T03:31:22.301Z,5.63
2018-06-27T03:32:22.110Z,5.63
2018-06-27T03:33:22.217Z,5.63
2018-06-27T03:34:22.138Z,5.63
2018-06-27T03:35:22.180Z,5.63
2018-06-27T03:36:22.208Z,5.63
2018-06-27T03:37:22.511Z,5.63
2018-06-27T03:38:22.266Z,5.63
2018-06-27T03:39:22.323Z,5.63
2018-06-27T03:40:22.341Z,5.63
2018-06-27T03:41:22.384Z,11.25
2018-06-27T03:42:22.404Z,11.25
2018-06-27T03:43:22.900Z,11.25
2018-06-27T03:44:22.459Z,11.25
2018-06-27T03:45:22.490Z,11.25
2018-06-27T03:46:22.523Z,11.25
2018-06-27T03:47:22.571Z,11.25
2018-06-27T03:48:22.586Z,11.25
2018-06-27T03:49:22.925Z,11.25
2018-06-27T03:50:22.661Z,11.25
2018-06-27T03:51:22.684Z,11.25
2018-06-27T03:52:22.719Z,11.25
2018-06-27T03:53:22.746Z,16.88
2018-06-27T03:54:22.778Z,16.88
2018-06-27T03:55:23.148Z,16.88
2018-06-27T03:56:22.846Z,16.88
2018-06-27T03:57:22.883Z,16.88
2018-06-27T03:58:22.911Z,16.88
2018-06-27T03:59:22.940Z,16.88
2018-06-27T04:00:22.970Z,16.88
2018-06-27T04:01:23.320Z,16.88
2018-06-27T04:02:23.055Z,16.88
2018-06-27T04:03:23.078Z,16.88
2018-06-27T04:04:23.100Z,16.88
2018-06-27T04:05:23.131Z,22.50
2018-06-27T04:06:23.167Z,22.50
2018-06-27T04:07:23.556Z,22.50
2018-06-27T04:08:23.231Z,22.50
2018-06-27T04:09:23.285Z,22.50
2018-06-27T04:10:23.294Z,22.50
2018-06-27T04:11:23.322Z,22.50
2018-06-27T04:12:23.378Z,22.50
2018-06-27T04:13:23.785Z,22.50
2018-06-27T04:14:23.451Z,22.50
2018-06-27T04:15:23.479Z,22.50
2018-06-27T04:16:23.499Z,28.13
2018-06-27T04:17:23.559Z,28.13
2018-06-27T04:18:23.556Z,28.13
2018-06-27T04:19:23.833Z,28.13
2018-06-27T04:20:23.615Z,28.13
2018-06-27T04:21:23.650Z,28.13
2018-06-27T04:22:23.680Z,28.13
2018-06-27T04:23:23.844Z,28.13
2018-06-27T04:24:23.764Z,28.13
2018-06-27T04:25:24.073Z,28.13
2018-06-27T04:26:23.805Z,28.13
2018-06-27T04:27:23.848Z,28.13
2018-06-27T04:28:23.881Z,28.13
2018-06-27T04:29:23.968Z,33.75
2018-06-27T04:30:23.966Z,33.75
2018-06-27T04:31:24.318Z,33.75
2018-06-27T04:32:24.011Z,33.75
2018-06-27T04:33:24.051Z,33.75
2018-06-27T04:34:24.064Z,33.75
2018-06-27T04:35:24.096Z,33.75
2018-06-27T04:36:24.132Z,33.75
2018-06-27T04:37:24.524Z,33.75
2018-06-27T04:38:24.230Z,33.75
2018-06-27T04:39:24.278Z,33.75
2018-06-27T04:40:24.277Z,33.75
2018-06-27T04:41:24.296Z,33.75
2018-06-27T04:42:24.322Z,33.75
2018-06-27T04:43:24.613Z,33.75
2018-06-27T04:44:24.433Z,39.38
2018-06-27T04:45:24.421Z,39.38
2018-06-27T04:46:24.491Z,39.38
2018-06-27T04:47:24.499Z,39.38
2018-06-27T04:48:24.514Z,39.38
2018-06-27T04:49:24.621Z,39.38
2018-06-27T04:50:24.835Z,39.38
2018-06-27T04:51:24.613Z,39.38
2018-06-27T04:52:24.657Z,39.38
2018-06-27T04:53:24.710Z,39.38
2018-06-27T04:54:24.711Z,39.38
2018-06-27T04:55:24.746Z,39.38
2018-06-27T04:56:24.775Z,39.38
2018-06-27T04:57:25.113Z,39.38
2018-06-27T04:58:24.866Z,39.38
2018-06-27T04:59:24.874Z,39.38
2018-06-27T05:00:24.908Z,39.38
2018-06-27T05:01:24.989Z,39.38
2018-06-27T05:02:24.986Z,45.00
2018-06-27T05:03:25.029Z,45.00
2018-06-27T05:04:25.350Z,45.00
2018-06-27T05:05:25.788Z,45.00
2018-06-27T05:06:25.113Z,45.00
2018-06-27T05:07:25.168Z,45.00
2018-06-27T05:08:25.219Z,45.00
2018-06-27T05:09:25.199Z,45.00
2018-06-27T05:10:25.276Z,45.00
2018-06-27T05:11:25.572Z,45.00
2018-06-27T05:12:25.319Z,45.00
2018-06-27T05:13:25.335Z,45.00
2018-06-27T05:14:25.369Z,45.00
2018-06-27T05:15:25.452Z,45.00
2018-06-27T05:16:25.501Z,45.00
2018-06-27T05:17:25.488Z,45.00
2018-06-27T05:18:25.747Z,45.00
2018-06-27T05:19:26.098Z,45.00
2018-06-27T05:20:25.561Z,45.00
2018-06-27T05:21:25.592Z,45.00
2018-06-27T05:22:25.628Z,45.00
2018-06-27T05:23:25.661Z,45.00
2018-06-27T05:24:25.700Z,45.00
2018-06-27T05:25:26.026Z,45.00
2018-06-27T05:26:25.759Z,45.00
2018-06-27T05:27:25.933Z,50.63
2018-06-27T05:28:25.821Z,50.63
2018-06-27T05:29:25.857Z,50.63
2018-06-27T05:30:25.891Z,50.63
2018-06-27T05:31:25.926Z,50.63
2018-06-27T05:32:26.310Z,50.63
2018-06-27T05:33:25.991Z,50.63
2018-06-27T05:34:26.021Z,50.63
2018-06-27T05:35:26.082Z,50.63
2018-06-27T05:36:26.089Z,50.63
2018-06-27T05:37:26.121Z,50.63
2018-06-27T05:38:26.152Z,50.63
2018-06-27T05:39:26.444Z,50.63
2018-06-27T05:40:26.214Z,50.63
2018-06-27T05:41:26.247Z,50.63
2018-06-27T05:42:26.284Z,50.63
2018-06-27T05:43:26.318Z,50.63
2018-06-27T05:44:26.347Z,50.63
2018-06-27T05:45:26.384Z,50.63
2018-06-27T05:46:26.664Z,50.63
2018-06-27T05:47:26.468Z,50.63
2018-06-27T05:48:26.477Z,50.63
2018-06-27T05:49:26.563Z,50.63
2018-06-27T05:50:26.548Z,50.63
2018-06-27T05:51:26.601Z,50.63
2018-06-27T05:52:26.620Z,50.63
2018-06-27T05:53:26.902Z,50.63
2018-06-27T05:54:26.714Z,50.63
2018-06-27T05:55:27.816Z,50.63
2018-06-27T05:56:26.742Z,50.63
2018-06-27T05:57:26.804Z,50.63
2018-06-27T05:58:26.876Z,50.63
2018-06-27T05:59:26.905Z,50.63
2018-06-27T06:00:27.149Z,50.63
2018-06-27T06:01:26.915Z,50.63
2018-06-27T06:02:26.991Z,50.63
2018-06-27T06:03:26.978Z,50.63
2018-06-27T06:04:27.093Z,50.63
2018-06-27T06:05:27.043Z,50.63
2018-06-27T06:06:27.100Z,50.63
2018-06-27T06:07:27.111Z,50.63
2018-06-27T06:08:27.169Z,50.63
2018-06-27T06:09:27.179Z,50.63
2018-06-27T06:10:27.208Z,50.63
2018-06-27T06:11:27.309Z,50.63
2018-06-27T06:12:27.307Z,50.63
2018-06-27T06:13:27.613Z,50.63
2018-06-27T06:14:27.338Z,50.63
2018-06-27T06:15:27.426Z,50.63
2018-06-27T06:16:27.404Z,50.63
2018-06-27T06:17:27.448Z,50.63
2018-06-27T06:18:27.480Z,50.63
2018-06-27T06:19:27.827Z,50.63
2018-06-27T06:20:27.573Z,56.25
2018-06-27T06:21:27.571Z,56.25
2018-06-27T06:22:27.628Z,56.25
2018-06-27T06:23:27.646Z,56.25
2018-06-27T06:24:27.682Z,56.25
2018-06-27T06:25:27.991Z,56.25
2018-06-27T06:26:27.744Z,56.25
2018-06-27T06:27:27.770Z,56.25
2018-06-27T06:28:27.810Z,56.25
2018-06-27T06:29:27.837Z,56.25
2018-06-27T06:30:27.877Z,56.25
2018-06-27T06:31:27.904Z,56.25
2018-06-27T06:32:27.997Z,56.25
2018-06-27T06:33:27.969Z,56.25
2018-06-27T06:34:28.021Z,56.25
2018-06-27T06:35:28.036Z,56.25
2018-06-27T06:36:28.078Z,56.25
2018-06-27T06:37:28.401Z,56.25
2018-06-27T06:38:28.136Z,56.25
2018-06-27T06:39:28.171Z,56.25
2018-06-27T06:40:28.204Z,56.25
2018-06-27T06:41:28.245Z,56.25
2018-06-27T06:42:28.269Z,56.25
2018-06-27T06:43:28.624Z,56.25
2018-06-27T06:44:28.334Z,56.25
2018-06-27T06:45:28.377Z,56.25
2018-06-27T06:46:28.402Z,56.25
2018-06-27T06:47:28.455Z,56.25
2018-06-27T06:48:28.468Z,56.25
2018-06-27T06:49:28.502Z,56.25
2018-06-27T06:50:28.534Z,56.25
2018-06-27T06:51:28.573Z,56.25
2018-06-27T06:52:28.604Z,56.25
2018-06-27T06:53:28.650Z,56.25
2018-06-27T06:54:28.682Z,56.25
2018-06-27T06:55:28.958Z,56.25
2018-06-27T06:56:28.736Z,56.25
2018-06-27T06:57:28.772Z,56.25
2018-06-27T06:58:28.811Z,56.25
2018-06-27T06:59:28.836Z,56.25
2018-06-27T07:00:28.903Z,56.25
2018-06-27T07:01:29.204Z,56.25
2018-06-27T07:02:28.938Z,56.25
2018-06-27T07:03:28.971Z,56.25
2018-06-27T07:04:28.999Z,56.25
2018-06-27T07:05:29.064Z,56.25
2018-06-27T07:06:29.067Z,56.25
2018-06-27T07:07:29.404Z,56.25
2018-06-27T07:08:29.138Z,56.25
2018-06-27T07:09:29.167Z,56.25
2018-06-27T07:10:29.212Z,56.25
2018-06-27T07:11:29.237Z,56.25
2018-06-27T07:12:29.276Z,56.25
2018-06-27T07:13:29.903Z,56.25
2018-06-27T07:14:29.370Z,56.25
2018-06-27T07:15:29.409Z,56.25
2018-06-27T07:16:29.405Z,56.25
2018-06-27T07:17:29.439Z,56.25
2018-06-27T07:18:29.474Z,56.25
2018-06-27T07:19:29.753Z,56.25
2018-06-27T07:20:29.537Z,56.25
2018-06-27T07:21:29.578Z,56.25
2018-06-27T07:22:29.603Z,56.25
2018-06-27T07:23:29.641Z,56.25
2018-06-27T07:24:29.678Z,56.25
2018-06-27T07:25:29.719Z,56.25
2018-06-27T07:26:29.740Z,56.25
2018-06-27T07:27:29.773Z,56.25
2018-06-27T07:28:29.850Z,56.25
2018-06-27T07:29:29.914Z,56.25
2018-06-27T07:30:29.874Z,56.25
2018-06-27T07:31:30.159Z,56.25
2018-06-27T07:32:29.941Z,56.25
2018-06-27T07:33:30.016Z,56.25
2018-06-27T07:34:30.016Z,56.25
2018-06-27T07:35:30.042Z,56.25
2018-06-27T07:36:30.121Z,56.25
2018-06-27T07:37:30.107Z,56.25
2018-06-27T07:38:30.443Z,56.25
2018-06-27T07:39:30.176Z,56.25
2018-06-27T07:40:30.210Z,56.25
2018-06-27T07:41:30.242Z,56.25
2018-06-27T07:42:30.293Z,56.25
2018-06-27T07:43:30.334Z,56.25
2018-06-27T07:44:30.382Z,56.25
2018-06-27T07:45:30.627Z,56.25
2018-06-27T07:46:30.442Z,56.25
2018-06-27T07:47:30.448Z,56.25
2018-06-27T07:48:30.479Z,56.25
2018-06-27T07:49:30.513Z,56.25
2018-06-27T07:50:30.548Z,56.25
2018-06-27T07:51:30.589Z,56.25
2018-06-27T07:52:30.917Z,56.25
2018-06-27T07:53:30.676Z,56.25
2018-06-27T07:54:30.685Z,56.25
2018-06-27T07:55:30.779Z,56.25
2018-06-27T07:56:30.770Z,56.25
2018-06-27T07:57:30.784Z,56.25
2018-06-27T07:58:30.815Z,56.25
2018-06-27T07:59:31.154Z,56.25
2018-06-27T08:00:30.882Z,56.25
2018-06-27T08:01:30.920Z,56.25
2018-06-27T08:02:30.955Z,56.25
2018-06-27T08:03:30.986Z,56.25
2018-06-27T08:04:31.021Z,56.25
2018-06-27T08:05:31.049Z,56.25
2018-06-27T08:06:31.385Z,56.25
2018-06-27T08:07:31.138Z,56.25
2018-06-27T08:08:31.152Z,56.25
2018-06-27T08:09:31.187Z,56.25
2018-06-27T08:10:31.235Z,56.25
2018-06-27T08:11:31.253Z,56.25
2018-06-27T08:12:31.290Z,56.25
2018-06-27T08:13:31.628Z,56.25
2018-06-27T08:14:31.362Z,56.25
2018-06-27T08:15:31.388Z,56.25
2018-06-27T08:16:31.437Z,56.25
2018-06-27T08:17:31.466Z,56.25
2018-06-27T08:18:31.493Z,56.25
2018-06-27T08:19:31.542Z,56.25
2018-06-27T08:20:31.809Z,56.25
2018-06-27T08:21:31.600Z,56.25
2018-06-27T08:22:31.629Z,56.25
2018-06-27T08:23:31.677Z,56.25
2018-06-27T08:24:31.746Z,56.25
2018-06-27T08:25:31.740Z,56.25
2018-06-27T08:26:31.794Z,56.25
2018-06-27T08:27:32.060Z,56.25
2018-06-27T08:28:31.830Z,56.25
2018-06-27T08:29:31.863Z,56.25
2018-06-27T08:30:31.896Z,56.25
2018-06-27T08:31:31.940Z,56.25
2018-06-27T08:32:31.983Z,56.25
2018-06-27T08:33:32.064Z,56.25
2018-06-27T08:34:32.291Z,56.25
2018-06-27T08:35:32.065Z,56.25
2018-06-27T08:36:32.106Z,56.25
2018-06-27T08:37:32.132Z,56.25
2018-06-27T08:38:32.173Z,56.25
2018-06-27T08:39:32.202Z,56.25
2018-06-27T08:40:32.236Z,56.25
2018-06-27T08:41:32.577Z,56.25
2018-06-27T08:42:32.308Z,56.25
2018-06-27T08:43:32.354Z,56.25
2018-06-27T08:44:32.458Z,56.25
2018-06-27T08:45:32.402Z,56.25
2018-06-27T08:46:32.456Z,56.25
2018-06-27T08:47:32.478Z,56.25
2018-06-27T08:48:32.806Z,56.25
2018-06-27T08:49:32.549Z,56.25
2018-06-27T08:50:32.574Z,56.25
2018-06-27T08:51:32.616Z,56.25
2018-06-27T08:52:32.645Z,56.25
2018-06-27T08:53:32.680Z,56.25
2018-06-27T08:54:32.959Z,56.25
2018-06-27T08:55:32.743Z,56.25
2018-06-27T08:56:32.777Z,56.25
2018-06-27T08:57:32.814Z,56.25
2018-06-27T08:58:32.868Z,56.25
2018-06-27T08:59:32.880Z,56.25
2018-06-27T09:00:33.212Z,56.25
2018-06-27T09:01:32.955Z,56.25
2018-06-27T09:02:32.982Z,56.25
2018-06-27T09:03:33.035Z,56.25
2018-06-27T09:04:33.050Z,56.25
2018-06-27T09:05:33.084Z,56.25
2018-06-27T09:06:33.367Z,56.25
2018-06-27T09:07:33.167Z,56.25
2018-06-27T09:08:33.186Z,56.25
2018-06-27T09:09:33.220Z,56.25
2018-06-27T09:10:33.266Z,56.25
2018-06-27T09:11:33.492Z,56.25
2018-06-27T09:12:33.623Z,56.25
2018-06-27T09:13:33.371Z,56.25
2018-06-27T09:14:33.394Z,56.25
2018-06-27T09:15:33.424Z,56.25
2018-06-27T09:16:33.463Z,56.25
2018-06-27T09:17:33.494Z,56.25
2018-06-27T09:18:33.540Z,56.25
2018-06-27T09:19:33.562Z,56.25
2018-06-27T09:20:33.607Z,56.25
2018-06-27T09:21:33.639Z,56.25
2018-06-27T09:22:33.722Z,56.25
2018-06-27T09:23:33.942Z,61.88
2018-06-27T09:24:33.979Z,61.88
2018-06-27T09:25:33.768Z,61.88
2018-06-27T09:26:33.798Z,61.88
2018-06-27T09:27:33.836Z,61.88
2018-06-27T09:28:33.869Z,61.88
2018-06-27T09:29:33.904Z,61.88
2018-06-27T09:30:34.196Z,61.88
2018-06-27T09:31:34.022Z,61.88
2018-06-27T09:32:34.007Z,61.88
2018-06-27T09:33:34.048Z,61.88
2018-06-27T09:34:34.073Z,61.88
2018-06-27T09:35:34.170Z,61.88
2018-06-27T09:36:34.391Z,61.88
2018-06-27T09:37:34.176Z,61.88
2018-06-27T09:38:34.214Z,61.88
2018-06-27T09:39:34.246Z,61.88
2018-06-27T09:40:34.276Z,61.88
2018-06-27T09:41:34.308Z,61.88
2018-06-27T09:42:34.675Z,61.88
2018-06-27T09:43:34.383Z,61.88
2018-06-27T09:44:34.412Z,61.88
2018-06-27T09:45:34.451Z,61.88
2018-06-27T09:46:34.491Z,61.88
2018-06-27T09:47:34.516Z,61.88
2018-06-27T09:48:34.850Z,61.88
2018-06-27T09:49:34.582Z,61.88
2018-06-27T09:50:34.617Z,61.88
2018-06-27T09:51:34.656Z,61.88
2018-06-27T09:52:34.684Z,61.88
2018-06-27T09:53:34.720Z,61.88
2018-06-27T09:54:35.001Z,61.88
2018-06-27T09:55:34.789Z,61.88
2018-06-27T09:56:34.835Z,61.88
2018-06-27T09:57:34.865Z,61.88
2018-06-27T09:58:34.890Z,61.88
2018-06-27T09:59:34.923Z,61.88
2018-06-27T10:00:35.206Z,61.88
2018-06-27T10:01:34.996Z,61.88
2018-06-27T10:02:35.025Z,61.88
2018-06-27T10:03:35.110Z,61.88
2018-06-27T10:04:35.098Z,61.88
2018-06-27T10:05:35.131Z,61.88
2018-06-27T10:06:35.167Z,61.88
2018-06-27T10:07:35.261Z,61.88
2018-06-27T10:08:35.237Z,61.88
2018-06-27T10:09:35.267Z,61.88
2018-06-27T10:10:35.306Z,61.88
2018-06-27T10:11:35.338Z,61.88
2018-06-27T10:12:35.686Z,61.88
2018-06-27T10:13:35.421Z,61.88
2018-06-27T10:14:35.440Z,61.88
2018-06-27T10:15:35.501Z,61.88
2018-06-27T10:16:35.507Z,67.50
2018-06-27T10:17:35.547Z,67.50
2018-06-27T10:18:35.591Z,67.50
2018-06-27T10:19:35.628Z,67.50
2018-06-27T10:20:35.647Z,67.50
2018-06-27T10:21:35.678Z,67.50
2018-06-27T10:22:35.737Z,67.50
2018-06-27T10:23:35.760Z,67.50
2018-06-27T10:24:35.810Z,67.50
2018-06-27T10:25:36.168Z,67.50
2018-06-27T10:26:35.857Z,67.50
2018-06-27T10:27:35.953Z,67.50
2018-06-27T10:28:35.923Z,67.50
2018-06-27T10:29:35.969Z,67.50
2018-06-27T10:30:35.989Z,67.50
2018-06-27T10:31:36.020Z,67.50
2018-06-27T10:32:36.355Z,67.50
2018-06-27T10:33:36.089Z,67.50
2018-06-27T10:34:36.450Z,67.50
2018-06-27T10:35:36.190Z,67.50
2018-06-27T10:36:36.190Z,67.50
2018-06-27T10:37:36.231Z,67.50
2018-06-27T10:38:36.263Z,67.50
2018-06-27T10:39:36.622Z,67.50
2018-06-27T10:40:36.334Z,67.50
2018-06-27T10:41:36.443Z,73.13
2018-06-27T10:42:36.401Z,73.13
2018-06-27T10:43:36.434Z,73.13
2018-06-27T10:44:36.529Z,73.13
2018-06-27T10:45:36.500Z,73.13
2018-06-27T10:46:36.784Z,73.13
2018-06-27T10:47:36.569Z,73.13
2018-06-27T10:48:36.601Z,73.13
2018-06-27T10:49:36.656Z,73.13
2018-06-27T10:50:36.670Z,78.75
2018-06-27T10:51:36.705Z,78.75
2018-06-27T10:52:36.741Z,78.75
2018-06-27T10:53:37.088Z,78.75
2018-06-27T10:54:36.813Z,78.75
2018-06-27T10:55:36.841Z,84.38
2018-06-27T10:56:36.876Z,84.38
2018-06-27T10:57:36.909Z,84.38
2018-06-27T10:58:36.963Z,90.00
2018-06-27T11:00:37.314Z,106.88
2018-06-27T11:01:37.046Z,101.25
2018-06-27T11:02:37.081Z,95.63
2018-06-27T11:03:37.177Z,95.63
2018-06-27T11:04:37.157Z,95.63
2018-06-27T11:05:37.192Z,95.63
2018-06-27T11:06:37.224Z,90.00
2018-06-27T11:07:37.503Z,95.63
2018-06-27T11:08:37.309Z,101.25
2018-06-27T11:09:37.332Z,106.88
2018-06-27T11:10:37.360Z,106.88
2018-06-27T11:11:37.416Z,112.50
2018-06-27T11:12:37.426Z,112.50
2018-06-27T11:13:37.464Z,112.50
2018-06-27T11:14:37.744Z,112.50
2018-06-27T11:15:37.539Z,112.50
2018-06-27T11:16:37.579Z,118.13
2018-06-27T11:17:37.607Z,123.75
2018-06-27T11:18:37.633Z,123.75
2018-06-27T11:19:37.678Z,129.38
2018-06-27T11:20:37.700Z,129.38
2018-06-27T11:21:37.989Z,123.75
2018-06-27T11:22:37.769Z,118.13
2018-06-27T11:23:37.807Z,123.75
2018-06-27T11:24:37.848Z,129.38
2018-06-27T11:25:37.878Z,135.00
2018-06-27T11:26:37.912Z,129.38
2018-06-27T11:27:37.958Z,129.38
2018-06-27T11:28:38.225Z,146.25
2018-06-27T11:29:38.012Z,157.50
2018-06-27T11:30:38.049Z,157.50
2018-06-27T11:31:38.097Z,151.88
2018-06-27T11:32:38.169Z,140.63
2018-06-27T11:33:38.155Z,140.63
2018-06-27T11:34:38.495Z,135.00
2018-06-27T11:35:38.228Z,135.00
2018-06-27T11:36:38.258Z,135.00
2018-06-27T11:37:38.360Z,135.00
2018-06-27T11:38:38.384Z,135.00
2018-06-27T11:39:38.360Z,140.63
2018-06-27T11:40:38.648Z,151.88
2018-06-27T11:41:38.429Z,157.50
2018-06-27T11:42:38.480Z,157.50
2018-06-27T11:43:38.497Z,151.88
2018-06-27T11:44:38.700Z,146.25
2018-06-27T11:45:38.570Z,163.13
2018-06-27T11:46:39.007Z,180.00
2018-06-27T11:47:38.700Z,202.50
2018-06-27T11:48:38.685Z,202.50
2018-06-27T11:49:38.707Z,196.88
2018-06-27T11:50:38.740Z,180.00
2018-06-27T11:51:38.775Z,157.50
2018-06-27T11:52:39.111Z,129.38
2018-06-27T11:53:38.845Z,112.50
2018-06-27T11:54:38.886Z,112.50
2018-06-27T11:55:38.923Z,118.13
2018-06-27T11:56:38.947Z,129.38
2018-06-27T11:57:38.983Z,151.88
2018-06-27T11:58:39.320Z,168.75
2018-06-27T11:59:39.073Z,180.00
2018-06-27T12:00:39.086Z,180.00
2018-06-27T12:01:39.148Z,185.63
2018-06-27T12:02:39.224Z,196.88
2018-06-27T12:03:39.198Z,213.75
2018-06-27T12:04:39.480Z,225.00
2018-06-27T12:05:39.268Z,219.38
2018-06-27T12:06:39.297Z,219.38
2018-06-27T12:07:39.337Z,219.38
2018-06-27T12:08:39.409Z,230.63
2018-06-27T12:09:39.404Z,225.00
2018-06-27T12:10:39.711Z,225.00
2018-06-27T12:11:39.474Z,225.00
2018-06-27T12:12:39.567Z,225.00
2018-06-27T12:13:39.548Z,213.75
2018-06-27T12:14:39.579Z,202.50
2018-06-27T12:15:39.615Z,191.25
2018-06-27T12:16:39.910Z,174.38
2018-06-27T12:17:39.797Z,163.13
2018-06-27T12:18:39.719Z,157.50
2018-06-27T12:19:39.758Z,151.88
2018-06-27T12:20:39.795Z,151.88
2018-06-27T12:21:39.842Z,151.88
2018-06-27T12:22:40.115Z,157.50
2018-06-27T12:23:40.172Z,168.75
2018-06-27T12:24:39.946Z,174.38
2018-06-27T12:25:40.028Z,174.38
2018-06-27T12:26:39.999Z,180.00
2018-06-27T12:27:40.085Z,185.63
2018-06-27T12:28:40.379Z,191.25
2018-06-27T12:29:40.111Z,191.25
2018-06-27T12:30:40.148Z,196.88
2018-06-27T12:31:40.179Z,191.25
2018-06-27T12:32:40.216Z,191.25
2018-06-27T12:33:40.245Z,185.63
2018-06-27T12:34:40.649Z,191.25
2018-06-27T12:35:40.449Z,191.25
2018-06-27T12:36:40.352Z,196.88
2018-06-27T12:37:40.389Z,202.50
2018-06-27T12:38:40.435Z,202.50
2018-06-27T12:39:40.477Z,202.50
2018-06-27T12:40:40.791Z,202.50
2018-06-27T12:41:40.529Z,202.50
2018-06-27T12:42:40.565Z,191.25
2018-06-27T12:43:40.599Z,185.63
2018-06-27T12:44:40.632Z,191.25
2018-06-27T12:45:40.668Z,196.88
2018-06-27T12:46:40.970Z,196.88
2018-06-27T12:47:40.742Z,202.50
2018-06-27T12:48:40.829Z,202.50
2018-06-27T12:49:40.810Z,202.50
2018-06-27T12:50:40.849Z,202.50
2018-06-27T12:51:40.910Z,202.50
2018-06-27T12:52:40.941Z,202.50
2018-06-27T12:53:41.255Z,208.13
2018-06-27T12:54:40.988Z,213.75
2018-06-27T12:55:41.058Z,213.75
2018-06-27T12:56:41.083Z,213.75
2018-06-27T12:57:41.096Z,213.75